sensor_id;sensor_type;location;lat;lon;timestamp;P1;durP1;ratioP1;P2;durP2;ratioP2
80705;SDS011;70229;48.010;7.852;2024-03-23T00:53:41;3.10;;;1.38;;
80705;SDS011;70229;48.010;7.852;2024-03-23T00:56:10;5.20;;;1.60;;
80705;SDS011;70229;48.010;7.852;2024-03-23T00:58:36;4.15;;;1.45;;
80705;SDS011;70229;48.010;7.852;2024-03-23T01:01:04;2.28;;;0.90;;
80705;SDS011;70229;48.010;7.852;2024-03-23T01:03:33;3.75;;;1.42;;
80705;SDS011;70229;48.010;7.852;2024-03-23T01:06:05;6.13;;;1.58;;
80705;SDS011;70229;48.010;7.852;2024-03-23T01:08:36;4.53;;;1.75;;
80705;SDS011;70229;48.010;7.852;2024-03-23T01:11:05;4.47;;;1.52;;
80705;SDS011;70229;48.010;7.852;2024-03-23T01:17:07;3.78;;;1.17;;
80705;SDS011;70229;48.010;7.852;2024-03-23T01:19:40;2.55;;;1.27;;
80705;SDS011;70229;48.010;7.852;2024-03-23T01:22:08;4.13;;;1.60;;
80705;SDS011;70229;48.010;7.852;2024-03-23T01:24:37;3.10;;;1.48;;
80705;SDS011;70229;48.010;7.852;2024-03-23T01:27:03;3.63;;;1.30;;
80705;SDS011;70229;48.010;7.852;2024-03-23T01:29:33;3.80;;;1.73;;
80705;SDS011;70229;48.010;7.852;2024-03-23T01:31:59;2.70;;;1.48;;
80705;SDS011;70229;48.010;7.852;2024-03-23T01:34:25;4.13;;;1.42;;
80705;SDS011;70229;48.010;7.852;2024-03-23T01:36:53;3.40;;;1.70;;
80705;SDS011;70229;48.010;7.852;2024-03-23T01:39:22;6.25;;;1.70;;
80705;SDS011;70229;48.010;7.852;2024-03-23T01:41:54;3.22;;;1.27;;
80705;SDS011;70229;48.010;7.852;2024-03-23T01:44:25;2.35;;;0.90;;
80705;SDS011;70229;48.010;7.852;2024-03-23T01:46:51;2.53;;;1.55;;
80705;SDS011;70229;48.010;7.852;2024-03-23T01:51:57;2.70;;;1.38;;
80705;SDS011;70229;48.010;7.852;2024-03-23T01:54:26;3.45;;;1.48;;
80705;SDS011;70229;48.010;7.852;2024-03-23T01:57:04;8.43;;;1.80;;
80705;SDS011;70229;48.010;7.852;2024-03-23T01:59:30;5.78;;;1.73;;
80705;SDS011;70229;48.010;7.852;2024-03-23T02:01:56;2.03;;;1.30;;
80705;SDS011;70229;48.010;7.852;2024-03-23T02:04:26;3.33;;;1.60;;
80705;SDS011;70229;48.010;7.852;2024-03-23T02:06:52;4.88;;;1.63;;
80705;SDS011;70229;48.010;7.852;2024-03-23T02:09:32;3.22;;;1.77;;
80705;SDS011;70229;48.010;7.852;2024-03-23T02:12:03;3.92;;;1.60;;
80705;SDS011;70229;48.010;7.852;2024-03-23T02:14:39;12.52;;;2.42;;
80705;SDS011;70229;48.010;7.852;2024-03-23T02:17:06;6.60;;;1.88;;
80705;SDS011;70229;48.010;7.852;2024-03-23T02:19:32;5.15;;;1.90;;
80705;SDS011;70229;48.010;7.852;2024-03-23T02:24:37;3.58;;;1.45;;
80705;SDS011;70229;48.010;7.852;2024-03-23T02:27:11;3.70;;;1.73;;
80705;SDS011;70229;48.010;7.852;2024-03-23T02:29:37;5.28;;;1.90;;
80705;SDS011;70229;48.010;7.852;2024-03-23T02:32:06;5.28;;;1.77;;
80705;SDS011;70229;48.010;7.852;2024-03-23T02:34:36;3.85;;;1.58;;
80705;SDS011;70229;48.010;7.852;2024-03-23T02:37:02;4.85;;;1.80;;
80705;SDS011;70229;48.010;7.852;2024-03-23T02:39:35;7.10;;;2.10;;
80705;SDS011;70229;48.010;7.852;2024-03-23T02:42:08;6.47;;;1.83;;
80705;SDS011;70229;48.010;7.852;2024-03-23T02:44:36;4.90;;;2.22;;
80705;SDS011;70229;48.010;7.852;2024-03-23T02:47:02;5.55;;;2.20;;
80705;SDS011;70229;48.010;7.852;2024-03-23T02:49:28;4.13;;;1.98;;
80705;SDS011;70229;48.010;7.852;2024-03-23T02:52:01;3.67;;;1.55;;
80705;SDS011;70229;48.010;7.852;2024-03-23T02:54:27;4.10;;;1.92;;
80705;SDS011;70229;48.010;7.852;2024-03-23T02:56:52;3.67;;;1.77;;
80705;SDS011;70229;48.010;7.852;2024-03-23T02:59:18;3.42;;;1.40;;
80705;SDS011;70229;48.010;7.852;2024-03-23T03:01:53;4.40;;;1.55;;
80705;SDS011;70229;48.010;7.852;2024-03-23T03:04:22;3.88;;;2.03;;
80705;SDS011;70229;48.010;7.852;2024-03-23T03:06:47;6.05;;;1.65;;
80705;SDS011;70229;48.010;7.852;2024-03-23T03:09:14;5.47;;;1.73;;
80705;SDS011;70229;48.010;7.852;2024-03-23T03:11:40;5.13;;;2.50;;
80705;SDS011;70229;48.010;7.852;2024-03-23T03:14:12;4.18;;;2.25;;
80705;SDS011;70229;48.010;7.852;2024-03-23T03:16:41;6.38;;;2.25;;
80705;SDS011;70229;48.010;7.852;2024-03-23T03:19:07;4.07;;;1.70;;
80705;SDS011;70229;48.010;7.852;2024-03-23T03:21:45;3.85;;;1.88;;
80705;SDS011;70229;48.010;7.852;2024-03-23T03:24:12;3.63;;;1.50;;
80705;SDS011;70229;48.010;7.852;2024-03-23T03:26:41;4.70;;;1.63;;
80705;SDS011;70229;48.010;7.852;2024-03-23T03:29:08;4.28;;;2.20;;
80705;SDS011;70229;48.010;7.852;2024-03-23T03:31:36;5.10;;;2.25;;
80705;SDS011;70229;48.010;7.852;2024-03-23T03:34:07;3.42;;;2.00;;
80705;SDS011;70229;48.010;7.852;2024-03-23T03:36:36;5.35;;;2.55;;
80705;SDS011;70229;48.010;7.852;2024-03-23T03:39:14;3.78;;;2.15;;
80705;SDS011;70229;48.010;7.852;2024-03-23T03:41:39;4.53;;;2.20;;
80705;SDS011;70229;48.010;7.852;2024-03-23T03:44:07;4.55;;;1.95;;
80705;SDS011;70229;48.010;7.852;2024-03-23T03:46:46;5.20;;;2.22;;
80705;SDS011;70229;48.010;7.852;2024-03-23T03:51:47;5.90;;;2.33;;
80705;SDS011;70229;48.010;7.852;2024-03-23T03:54:15;2.72;;;1.50;;
80705;SDS011;70229;48.010;7.852;2024-03-23T03:56:47;3.80;;;1.52;;
80705;SDS011;70229;48.010;7.852;2024-03-23T03:59:17;6.93;;;1.90;;
80705;SDS011;70229;48.010;7.852;2024-03-23T04:01:46;15.02;;;2.13;;
80705;SDS011;70229;48.010;7.852;2024-03-23T04:04:21;5.00;;;2.22;;
80705;SDS011;70229;48.010;7.852;2024-03-23T04:06:49;3.83;;;2.03;;
80705;SDS011;70229;48.010;7.852;2024-03-23T04:09:15;4.28;;;2.25;;
80705;SDS011;70229;48.010;7.852;2024-03-23T04:11:48;4.32;;;2.17;;
80705;SDS011;70229;48.010;7.852;2024-03-23T04:17:47;5.03;;;2.50;;
80705;SDS011;70229;48.010;7.852;2024-03-23T04:20:13;5.32;;;2.35;;
80705;SDS011;70229;48.010;7.852;2024-03-23T04:26:24;4.68;;;2.35;;
80705;SDS011;70229;48.010;7.852;2024-03-23T04:28:55;6.80;;;2.45;;
80705;SDS011;70229;48.010;7.852;2024-03-23T04:31:21;5.68;;;2.28;;
80705;SDS011;70229;48.010;7.852;2024-03-23T04:33:50;4.97;;;1.92;;
80705;SDS011;70229;48.010;7.852;2024-03-23T04:36:15;4.97;;;2.00;;
80705;SDS011;70229;48.010;7.852;2024-03-23T04:38:42;4.25;;;2.13;;
80705;SDS011;70229;48.010;7.852;2024-03-23T04:41:14;4.97;;;2.78;;
80705;SDS011;70229;48.010;7.852;2024-03-23T04:43:42;4.95;;;2.70;;
80705;SDS011;70229;48.010;7.852;2024-03-23T04:46:20;8.00;;;3.17;;
80705;SDS011;70229;48.010;7.852;2024-03-23T04:51:59;6.18;;;2.63;;
80705;SDS011;70229;48.010;7.852;2024-03-23T04:54:53;4.30;;;2.33;;
80705;SDS011;70229;48.010;7.852;2024-03-23T04:57:27;4.18;;;2.25;;
80705;SDS011;70229;48.010;7.852;2024-03-23T04:59:58;4.78;;;3.03;;
80705;SDS011;70229;48.010;7.852;2024-03-23T05:02:24;6.22;;;2.88;;
80705;SDS011;70229;48.010;7.852;2024-03-23T05:04:50;7.10;;;3.55;;
80705;SDS011;70229;48.010;7.852;2024-03-23T05:07:35;5.32;;;2.85;;
80705;SDS011;70229;48.010;7.852;2024-03-23T05:10:01;5.18;;;2.45;;
80705;SDS011;70229;48.010;7.852;2024-03-23T05:12:40;5.05;;;2.50;;
80705;SDS011;70229;48.010;7.852;2024-03-23T05:15:09;6.40;;;2.78;;
80705;SDS011;70229;48.010;7.852;2024-03-23T05:17:37;4.38;;;2.05;;
80705;SDS011;70229;48.010;7.852;2024-03-23T05:20:03;5.13;;;2.95;;
80705;SDS011;70229;48.010;7.852;2024-03-23T05:22:30;4.45;;;2.33;;
80705;SDS011;70229;48.010;7.852;2024-03-23T05:24:56;9.45;;;3.97;;
80705;SDS011;70229;48.010;7.852;2024-03-23T05:27:21;4.95;;;2.92;;
80705;SDS011;70229;48.010;7.852;2024-03-23T05:29:48;4.88;;;2.53;;
80705;SDS011;70229;48.010;7.852;2024-03-23T05:32:13;6.13;;;3.08;;
80705;SDS011;70229;48.010;7.852;2024-03-23T05:34:39;4.65;;;2.90;;
80705;SDS011;70229;48.010;7.852;2024-03-23T05:37:05;4.70;;;2.30;;
80705;SDS011;70229;48.010;7.852;2024-03-23T05:39:31;5.68;;;2.53;;
80705;SDS011;70229;48.010;7.852;2024-03-23T05:41:56;5.13;;;2.53;;
80705;SDS011;70229;48.010;7.852;2024-03-23T05:44:22;5.82;;;3.03;;
80705;SDS011;70229;48.010;7.852;2024-03-23T05:46:47;5.47;;;2.55;;
80705;SDS011;70229;48.010;7.852;2024-03-23T05:49:13;4.65;;;2.60;;
80705;SDS011;70229;48.010;7.852;2024-03-23T05:51:40;4.93;;;2.58;;
80705;SDS011;70229;48.010;7.852;2024-03-23T05:54:06;5.68;;;2.55;;
80705;SDS011;70229;48.010;7.852;2024-03-23T05:56:31;4.68;;;2.53;;
80705;SDS011;70229;48.010;7.852;2024-03-23T05:58:57;5.30;;;2.35;;
80705;SDS011;70229;48.010;7.852;2024-03-23T06:01:22;6.68;;;3.28;;
80705;SDS011;70229;48.010;7.852;2024-03-23T06:03:50;5.72;;;3.08;;
80705;SDS011;70229;48.010;7.852;2024-03-23T06:06:19;4.93;;;2.83;;
80705;SDS011;70229;48.010;7.852;2024-03-23T06:08:44;7.32;;;3.40;;
80705;SDS011;70229;48.010;7.852;2024-03-23T06:11:10;5.95;;;3.60;;
80705;SDS011;70229;48.010;7.852;2024-03-23T06:13:38;5.53;;;3.50;;
80705;SDS011;70229;48.010;7.852;2024-03-23T06:16:04;7.03;;;3.78;;
80705;SDS011;70229;48.010;7.852;2024-03-23T06:18:30;6.25;;;3.17;;
80705;SDS011;70229;48.010;7.852;2024-03-23T06:21:04;7.70;;;4.32;;
80705;SDS011;70229;48.010;7.852;2024-03-23T06:23:40;5.68;;;3.38;;
80705;SDS011;70229;48.010;7.852;2024-03-23T06:26:18;7.10;;;4.32;;
80705;SDS011;70229;48.010;7.852;2024-03-23T06:28:45;8.40;;;3.67;;
80705;SDS011;70229;48.010;7.852;2024-03-23T06:31:16;5.38;;;2.97;;
80705;SDS011;70229;48.010;7.852;2024-03-23T06:33:47;4.00;;;2.10;;
80705;SDS011;70229;48.010;7.852;2024-03-23T06:36:20;3.67;;;1.60;;
80705;SDS011;70229;48.010;7.852;2024-03-23T06:38:46;2.78;;;1.17;;
80705;SDS011;70229;48.010;7.852;2024-03-23T06:41:12;1.83;;;0.70;;
80705;SDS011;70229;48.010;7.852;2024-03-23T06:43:38;0.98;;;0.32;;
80705;SDS011;70229;48.010;7.852;2024-03-23T06:46:03;1.35;;;0.57;;
80705;SDS011;70229;48.010;7.852;2024-03-23T06:48:29;0.77;;;0.30;;
80705;SDS011;70229;48.010;7.852;2024-03-23T06:50:58;0.20;;;0.20;;
80705;SDS011;70229;48.010;7.852;2024-03-23T06:53:24;0.63;;;0.25;;
80705;SDS011;70229;48.010;7.852;2024-03-23T06:55:51;0.20;;;0.20;;
80705;SDS011;70229;48.010;7.852;2024-03-23T06:58:18;2.42;;;0.30;;
80705;SDS011;70229;48.010;7.852;2024-03-23T07:00:47;5.35;;;0.30;;
80705;SDS011;70229;48.010;7.852;2024-03-23T07:03:13;0.70;;;0.35;;
80705;SDS011;70229;48.010;7.852;2024-03-23T07:05:41;0.45;;;0.13;;
80705;SDS011;70229;48.010;7.852;2024-03-23T07:08:07;0.45;;;0.20;;
80705;SDS011;70229;48.010;7.852;2024-03-23T07:10:39;0.88;;;0.20;;
80705;SDS011;70229;48.010;7.852;2024-03-23T07:13:12;1.15;;;0.40;;
80705;SDS011;70229;48.010;7.852;2024-03-23T07:15:38;0.50;;;0.22;;
80705;SDS011;70229;48.010;7.852;2024-03-23T07:18:04;0.25;;;0.20;;
80705;SDS011;70229;48.010;7.852;2024-03-23T07:20:30;2.90;;;0.25;;
80705;SDS011;70229;48.010;7.852;2024-03-23T07:22:56;0.20;;;0.20;;
80705;SDS011;70229;48.010;7.852;2024-03-23T07:25:22;2.25;;;0.20;;
80705;SDS011;70229;48.010;7.852;2024-03-23T07:27:48;0.10;;;0.10;;
80705;SDS011;70229;48.010;7.852;2024-03-23T07:30:14;1.58;;;0.20;;
80705;SDS011;70229;48.010;7.852;2024-03-23T07:32:39;0.15;;;0.10;;
80705;SDS011;70229;48.010;7.852;2024-03-23T07:35:05;0.60;;;0.22;;
80705;SDS011;70229;48.010;7.852;2024-03-23T07:37:31;0.22;;;0.20;;
80705;SDS011;70229;48.010;7.852;2024-03-23T07:39:57;0.63;;;0.22;;
80705;SDS011;70229;48.010;7.852;2024-03-23T07:42:24;0.45;;;0.13;;
80705;SDS011;70229;48.010;7.852;2024-03-23T07:44:51;1.00;;;0.47;;
80705;SDS011;70229;48.010;7.852;2024-03-23T07:47:21;0.75;;;0.40;;
80705;SDS011;70229;48.010;7.852;2024-03-23T07:49:47;0.45;;;0.30;;
80705;SDS011;70229;48.010;7.852;2024-03-23T07:52:13;0.90;;;0.47;;
80705;SDS011;70229;48.010;7.852;2024-03-23T07:54:41;0.93;;;0.50;;
80705;SDS011;70229;48.010;7.852;2024-03-23T07:57:10;1.02;;;0.20;;
80705;SDS011;70229;48.010;7.852;2024-03-23T07:59:35;1.25;;;0.43;;
80705;SDS011;70229;48.010;7.852;2024-03-23T08:02:09;0.25;;;0.22;;
80705;SDS011;70229;48.010;7.852;2024-03-23T08:08:02;2.17;;;0.55;;
80705;SDS011;70229;48.010;7.852;2024-03-23T08:13:11;6.68;;;1.38;;
80705;SDS011;70229;48.010;7.852;2024-03-23T08:15:51;5.07;;;1.38;;
80705;SDS011;70229;48.010;7.852;2024-03-23T08:18:17;4.60;;;1.40;;
80705;SDS011;70229;48.010;7.852;2024-03-23T08:20:42;6.97;;;1.60;;
80705;SDS011;70229;48.010;7.852;2024-03-23T08:23:08;5.68;;;1.55;;
80705;SDS011;70229;48.010;7.852;2024-03-23T08:25:52;4.72;;;1.67;;
80705;SDS011;70229;48.010;7.852;2024-03-23T08:32:09;6.80;;;1.63;;
80705;SDS011;70229;48.010;7.852;2024-03-23T08:34:44;6.13;;;1.42;;
80705;SDS011;70229;48.010;7.852;2024-03-23T08:37:13;5.80;;;1.60;;
80705;SDS011;70229;48.010;7.852;2024-03-23T08:39:39;7.68;;;1.85;;
80705;SDS011;70229;48.010;7.852;2024-03-23T08:42:06;7.05;;;1.85;;
80705;SDS011;70229;48.010;7.852;2024-03-23T08:44:33;9.55;;;2.38;;
80705;SDS011;70229;48.010;7.852;2024-03-23T08:47:08;4.95;;;2.20;;
80705;SDS011;70229;48.010;7.852;2024-03-23T08:49:44;4.72;;;1.50;;
80705;SDS011;70229;48.010;7.852;2024-03-23T08:52:12;4.88;;;1.65;;
80705;SDS011;70229;48.010;7.852;2024-03-23T08:54:38;6.50;;;1.90;;
80705;SDS011;70229;48.010;7.852;2024-03-23T08:57:04;10.00;;;2.35;;
80705;SDS011;70229;48.010;7.852;2024-03-23T08:59:30;6.18;;;2.00;;
80705;SDS011;70229;48.010;7.852;2024-03-23T09:01:58;4.85;;;2.05;;
80705;SDS011;70229;48.010;7.852;2024-03-23T09:04:32;6.82;;;2.03;;
80705;SDS011;70229;48.010;7.852;2024-03-23T09:09:40;7.50;;;2.25;;
80705;SDS011;70229;48.010;7.852;2024-03-23T09:12:06;14.93;;;2.35;;
80705;SDS011;70229;48.010;7.852;2024-03-23T09:14:34;5.32;;;1.65;;
80705;SDS011;70229;48.010;7.852;2024-03-23T09:17:03;7.28;;;1.63;;
80705;SDS011;70229;48.010;7.852;2024-03-23T09:19:40;5.35;;;1.95;;
80705;SDS011;70229;48.010;7.852;2024-03-23T09:22:06;8.25;;;2.42;;
80705;SDS011;70229;48.010;7.852;2024-03-23T09:51:43;4.70;;;1.33;;
80705;SDS011;70229;48.010;7.852;2024-03-23T09:54:11;4.10;;;1.05;;
80705;SDS011;70229;48.010;7.852;2024-03-23T09:57:06;4.05;;;0.95;;
80705;SDS011;70229;48.010;7.852;2024-03-23T23:49:43;3.42;;;1.30;;
80705;SDS011;70229;48.010;7.852;2024-03-23T23:52:09;3.90;;;0.75;;
80705;SDS011;70229;48.010;7.852;2024-03-23T23:54:35;8.55;;;1.63;;
